Time,TemperatureF,DewpointF,PressureIn,WindDirection,WindDirectionDegrees,WindSpeedMPH,WindSpeedGustMPH,Humidity,HourlyPrecipIn,Conditions,Clouds,dailyrainin,SoftwareType,DateUTC
2013-01-15 00:02:00,32.0,-6.0,-100.00,NE,55,10.0,17.0,19,-99.99,,,-99.99,,2013-01-15 08:02:00,
2013-01-15 00:12:00,31.0,-6.0,-100.00,NE,55,10.0,19.0,19,-99.99,,,-99.99,,2013-01-15 08:12:00,
2013-01-15 00:22:00,32.0,-6.0,-100.00,ENE,60,13.0,25.0,19,-99.99,,,-99.99,,2013-01-15 08:22:00,
2013-01-15 00:32:00,32.0,-6.0,-100.00,ENE,63,14.0,23.0,19,-99.99,,,-99.99,,2013-01-15 08:32:00,
2013-01-15 00:42:00,32.0,-6.0,-100.00,ENE,68,12.0,23.0,19,-99.99,,,-99.99,,2013-01-15 08:42:00,
2013-01-15 00:52:00,32.0,-6.0,-100.00,ENE,70,11.0,23.0,19,-99.99,,,-99.99,,2013-01-15 08:52:00,
2013-01-15 01:02:00,32.0,-6.0,-100.00,ENE,59,10.0,21.0,19,-99.99,,,-99.99,,2013-01-15 09:02:00,
2013-01-15 01:11:00,32.0,-4.0,-100.00,ENE,62,12.0,20.0,20,-99.99,,,-99.99,,2013-01-15 09:11:00,
2013-01-15 01:22:00,32.0,-4.0,-100.00,NE,52,13.0,27.0,20,-99.99,,,-99.99,,2013-01-15 09:22:00,
2013-01-15 01:33:00,32.0,-4.0,-100.00,ENE,57,14.0,21.0,20,-99.99,,,-99.99,,2013-01-15 09:33:00,
2013-01-15 01:42:00,31.0,-5.0,-100.00,NE,41,13.0,23.0,20,-99.99,,,-99.99,,2013-01-15 09:42:00,
2013-01-15 01:52:00,31.0,-5.0,-100.00,NE,41,13.0,23.0,20,-99.99,,,-99.99,,2013-01-15 09:52:00,
2013-01-15 02:02:00,31.0,-4.0,-100.00,NE,51,11.0,23.0,21,-99.99,,,-99.99,,2013-01-15 10:02:00,
2013-01-15 02:11:00,32.0,-3.0,-100.00,NE,45,16.0,26.0,21,-99.99,,,-99.99,,2013-01-15 10:11:00,
2013-01-15 02:22:00,32.0,-3.0,-100.00,NE,40,17.0,26.0,21,-99.99,,,-99.99,,2013-01-15 10:22:00,
2013-01-15 02:32:00,32.0,-3.0,-100.00,NE,38,13.0,24.0,21,-99.99,,,-99.99,,2013-01-15 10:32:00,
2013-01-15 02:42:00,32.0,-3.0,-100.00,NNE,23,13.0,21.0,21,-99.99,,,-99.99,,2013-01-15 10:42:00,
2013-01-15 02:52:00,33.0,-3.0,-100.00,NNE,20,10.0,19.0,21,-99.99,,,-99.99,,2013-01-15 10:52:00,
2013-01-15 03:02:00,34.0,-2.0,-100.00,NE,51,6.0,13.0,21,-99.99,,,-99.99,,2013-01-15 11:02:00,
2013-01-15 03:12:00,35.0,-1.0,-100.00,NE,46,11.0,22.0,21,-99.99,,,-99.99,,2013-01-15 11:12:00,
2013-01-15 03:22:00,33.0,-3.0,-100.00,NE,34,11.0,22.0,21,-99.99,,,-99.99,,2013-01-15 11:22:00,
2013-01-15 03:32:00,33.0,-3.0,-100.00,NE,42,10.0,17.0,21,-99.99,,,-99.99,,2013-01-15 11:32:00,
2013-01-15 03:42:00,33.0,-3.0,-100.00,NE,46,10.0,19.0,21,-99.99,,,-99.99,,2013-01-15 11:42:00,
2013-01-15 03:52:00,33.0,-3.0,-100.00,NE,56,9.0,15.0,21,-99.99,,,-99.99,,2013-01-15 11:52:00,
2013-01-15 04:02:00,33.0,-3.0,-100.00,NE,56,9.0,17.0,21,-99.99,,,-99.99,,2013-01-15 12:02:00,
2013-01-15 04:12:00,34.0,-2.0,-100.00,NE,55,8.0,16.0,21,-99.99,,,-99.99,,2013-01-15 12:12:00,
2013-01-15 04:22:00,33.0,-3.0,-100.00,NE,37,9.0,17.0,21,-99.99,,,-99.99,,2013-01-15 12:22:00,
2013-01-15 04:32:00,33.0,-2.0,-100.00,NE,47,5.0,11.0,22,-99.99,,,-99.99,,2013-01-15 12:32:00,
2013-01-15 04:42:00,33.0,-2.0,-100.00,NE,48,7.0,13.0,22,-99.99,,,-99.99,,2013-01-15 12:42:00,
2013-01-15 04:53:00,33.0,-2.0,-100.00,ENE,64,8.0,15.0,22,-99.99,,,-99.99,,2013-01-15 12:53:00,
2013-01-15 05:02:00,33.0,-2.0,-100.00,ENE,74,11.0,18.0,22,-99.99,,,-99.99,,2013-01-15 13:02:00,
2013-01-15 05:12:00,33.0,-2.0,-100.00,ENE,72,10.0,17.0,22,-99.99,,,-99.99,,2013-01-15 13:12:00,
2013-01-15 05:22:00,33.0,-2.0,-100.00,ENE,77,13.0,20.0,22,-99.99,,,-99.99,,2013-01-15 13:22:00,
2013-01-15 05:32:00,33.0,-1.0,-100.00,ENE,63,9.0,16.0,23,-99.99,,,-99.99,,2013-01-15 13:32:00,
2013-01-15 05:42:00,33.0,-1.0,-100.00,ENE,63,9.0,16.0,23,-99.99,,,-99.99,,2013-01-15 13:42:00,
2013-01-15 05:53:00,33.0,-2.0,-100.00,ENE,69,11.0,22.0,22,-99.99,,,-99.99,,2013-01-15 13:53:00,
2013-01-15 06:02:00,34.0,0.0,-100.00,ENE,59,6.0,15.0,23,-99.99,,,-99.99,,2013-01-15 14:02:00,
2013-01-15 06:12:00,33.0,-1.0,-100.00,ENE,57,8.0,17.0,23,-99.99,,,-99.99,,2013-01-15 14:12:00,
2013-01-15 06:22:00,34.0,-1.0,-100.00,ENE,75,12.0,19.0,22,-99.99,,,-99.99,,2013-01-15 14:22:00,
2013-01-15 06:32:00,33.0,-2.0,-100.00,ENE,73,14.0,24.0,22,-99.99,,,-99.99,,2013-01-15 14:32:00,
2013-01-15 06:42:00,33.0,-2.0,-100.00,ENE,67,10.0,20.0,22,-99.99,,,-99.99,,2013-01-15 14:42:00,
2013-01-15 06:53:00,33.0,-1.0,-100.00,ENE,58,9.0,20.0,23,-99.99,,,-99.99,,2013-01-15 14:53:00,
2013-01-15 07:02:00,34.0,0.0,-100.00,ENE,67,10.0,23.0,23,-99.99,,,-99.99,,2013-01-15 15:02:00,
2013-01-15 07:12:00,34.0,0.0,-100.00,ENE,70,12.0,22.0,23,-99.99,,,-99.99,,2013-01-15 15:12:00,
2013-01-15 07:23:00,34.0,1.0,-100.00,ENE,78,9.0,16.0,24,-99.99,,,-99.99,,2013-01-15 15:23:00,
2013-01-15 07:33:00,36.0,4.0,-100.00,ENE,74,8.0,17.0,25,-99.99,,,-99.99,,2013-01-15 15:33:00,
2013-01-15 07:43:00,36.0,4.0,-100.00,ENE,74,8.0,17.0,25,-99.99,,,-99.99,,2013-01-15 15:43:00,
2013-01-15 07:52:00,37.0,5.0,-100.00,ENE,66,6.0,16.0,26,-99.99,,,-99.99,,2013-01-15 15:52:00,
2013-01-15 08:02:00,37.0,5.0,-100.00,ENE,66,6.0,16.0,26,-99.99,,,-99.99,,2013-01-15 16:02:00,
2013-01-15 08:12:00,38.0,6.0,-100.00,NE,51,6.0,15.0,26,-99.99,,,-99.99,,2013-01-15 16:12:00,
2013-01-15 08:22:00,39.0,7.0,-100.00,NNE,30,4.0,11.0,26,-99.99,,,-99.99,,2013-01-15 16:22:00,
2013-01-15 08:33:00,40.0,7.0,-100.00,ENE,60,7.0,18.0,25,-99.99,,,-99.99,,2013-01-15 16:33:00,
2013-01-15 08:42:00,41.0,9.0,-100.00,NE,55,4.0,10.0,26,-99.99,,,-99.99,,2013-01-15 16:42:00,
2013-01-15 08:53:00,41.0,9.0,-100.00,NE,56,9.0,15.0,26,-99.99,,,-99.99,,2013-01-15 16:53:00,
2013-01-15 09:03:00,41.0,9.0,-100.00,NE,56,9.0,15.0,26,-99.99,,,-99.99,,2013-01-15 17:03:00,
2013-01-15 09:12:00,40.0,7.0,-100.00,ENE,62,13.0,27.0,25,-99.99,,,-99.99,,2013-01-15 17:12:00,
2013-01-15 09:22:00,40.0,7.0,-100.00,NE,48,14.0,23.0,25,-99.99,,,-99.99,,2013-01-15 17:22:00,
2013-01-15 09:33:00,40.0,6.0,-100.00,NE,43,13.0,22.0,24,-99.99,,,-99.99,,2013-01-15 17:33:00,
2013-01-15 09:42:00,40.0,6.0,-100.00,NE,50,11.0,20.0,24,-99.99,,,-99.99,,2013-01-15 17:42:00,
2013-01-15 09:53:00,41.0,7.0,-100.00,NE,49,10.0,18.0,24,-99.99,,,-99.99,,2013-01-15 17:53:00,
2013-01-15 10:02:00,41.0,7.0,-100.00,NE,49,10.0,18.0,24,-99.99,,,-99.99,,2013-01-15 18:02:00,
2013-01-15 10:12:00,41.0,7.0,-100.00,ENE,64,14.0,23.0,24,-99.99,,,-99.99,,2013-01-15 18:12:00,
2013-01-15 10:22:00,42.0,8.0,-100.00,ENE,63,13.0,23.0,24,-99.99,,,-99.99,,2013-01-15 18:22:00,
2013-01-15 10:33:00,42.0,8.0,-100.00,ENE,64,12.0,21.0,24,-99.99,,,-99.99,,2013-01-15 18:33:00,
2013-01-15 10:42:00,42.0,8.0,-100.00,NE,53,11.0,20.0,24,-99.99,,,-99.99,,2013-01-15 18:42:00,
2013-01-15 10:53:00,42.0,8.0,-100.00,ENE,72,14.0,26.0,24,-99.99,,,-99.99,,2013-01-15 18:53:00,
2013-01-15 11:03:00,42.0,8.0,-100.00,ENE,73,13.0,24.0,24,-99.99,,,-99.99,,2013-01-15 19:03:00,
2013-01-15 11:12:00,43.0,9.0,-100.00,ENE,70,13.0,22.0,24,-99.99,,,-99.99,,2013-01-15 19:12:00,
2013-01-15 11:22:00,43.0,9.0,-100.00,ENE,67,14.0,26.0,24,-99.99,,,-99.99,,2013-01-15 19:22:00,
2013-01-15 11:33:00,43.0,8.0,-100.00,ENE,67,14.0,23.0,23,-99.99,,,-99.99,,2013-01-15 19:33:00,
2013-01-15 11:42:00,43.0,8.0,-100.00,ENE,63,12.0,21.0,23,-99.99,,,-99.99,,2013-01-15 19:42:00,
2013-01-15 11:52:00,44.0,9.0,-100.00,ENE,61,8.0,16.0,23,-99.99,,,-99.99,,2013-01-15 19:52:00,
2013-01-15 12:02:00,44.0,9.0,-100.00,ENE,61,8.0,16.0,23,-99.99,,,-99.99,,2013-01-15 20:02:00,
2013-01-15 12:12:00,44.0,9.0,-100.00,NE,35,13.0,24.0,23,-99.99,,,-99.99,,2013-01-15 20:12:00,
2013-01-15 12:22:00,44.0,9.0,-100.00,NE,42,13.0,18.0,23,-99.99,,,-99.99,,2013-01-15 20:22:00,
2013-01-15 12:33:00,44.0,9.0,-100.00,NE,39,11.0,19.0,23,-99.99,,,-99.99,,2013-01-15 20:33:00,
2013-01-15 12:43:00,44.0,9.0,-100.00,NE,48,13.0,21.0,23,-99.99,,,-99.99,,2013-01-15 20:43:00,
2013-01-15 12:52:00,44.0,9.0,-100.00,NE,45,14.0,23.0,23,-99.99,,,-99.99,,2013-01-15 20:52:00,
2013-01-15 13:02:00,44.0,9.0,-100.00,NE,36,16.0,23.0,23,-99.99,,,-99.99,,2013-01-15 21:02:00,
2013-01-15 13:12:00,44.0,10.0,-100.00,NNE,31,14.0,22.0,24,-99.99,,,-99.99,,2013-01-15 21:12:00,
2013-01-15 13:22:00,45.0,10.0,-100.00,NNE,33,13.0,21.0,24,-99.99,,,-99.99,,2013-01-15 21:22:00,
2013-01-15 13:33:00,45.0,9.0,-100.00,NE,37,14.0,23.0,23,-99.99,,,-99.99,,2013-01-15 21:33:00,
2013-01-15 13:42:00,45.0,9.0,-100.00,NNE,19,12.0,20.0,23,-99.99,,,-99.99,,2013-01-15 21:42:00,
2013-01-15 13:52:00,45.0,9.0,-100.00,North,2,12.0,21.0,23,-99.99,,,-99.99,,2013-01-15 21:52:00,
2013-01-15 14:02:00,45.0,9.0,-100.00,North,352,9.0,13.0,23,-99.99,,,-99.99,,2013-01-15 22:02:00,
2013-01-15 14:12:00,45.0,10.0,-100.00,North,355,10.0,17.0,24,-99.99,,,-99.99,,2013-01-15 22:12:00,
2013-01-15 14:22:00,46.0,11.0,-100.00,NNE,22,11.0,19.0,24,-99.99,,,-99.99,,2013-01-15 22:22:00,
2013-01-15 14:32:00,46.0,11.0,-100.00,NE,39,13.0,24.0,24,-99.99,,,-99.99,,2013-01-15 22:32:00,
2013-01-15 14:42:00,46.0,11.0,-100.00,NE,35,13.0,22.0,24,-99.99,,,-99.99,,2013-01-15 22:42:00,
2013-01-15 14:52:00,46.0,11.0,-100.00,NNE,25,16.0,24.0,24,-99.99,,,-99.99,,2013-01-15 22:52:00,
2013-01-15 15:02:00,46.0,11.0,-100.00,NNE,33,17.0,23.0,24,-99.99,,,-99.99,,2013-01-15 23:02:00,
2013-01-15 15:12:00,47.0,12.0,-100.00,NNE,32,15.0,22.0,24,-99.99,,,-99.99,,2013-01-15 23:12:00,
2013-01-15 15:22:00,47.0,12.0,-100.00,NNE,27,13.0,20.0,24,-99.99,,,-99.99,,2013-01-15 23:22:00,
2013-01-15 15:32:00,47.0,12.0,-100.00,NNE,32,13.0,21.0,24,-99.99,,,-99.99,,2013-01-15 23:32:00,
2013-01-15 15:42:00,46.0,11.0,-100.00,NNE,29,12.0,18.0,24,-99.99,,,-99.99,,2013-01-15 23:42:00,
2013-01-15 15:53:00,47.0,12.0,-100.00,NE,40,12.0,17.0,24,-99.99,,,-99.99,,2013-01-15 23:53:00,
2013-01-15 16:02:00,47.0,12.0,-100.00,NE,48,13.0,19.0,24,-99.99,,,-99.99,,2013-01-16 00:02:00,
2013-01-15 16:12:00,47.0,13.0,-100.00,ENE,62,12.0,21.0,25,-99.99,,,-99.99,,2013-01-16 00:12:00,
2013-01-15 16:22:00,46.0,12.0,-100.00,NNE,32,11.0,19.0,25,-99.99,,,-99.99,,2013-01-16 00:22:00,
2013-01-15 16:32:00,46.0,13.0,-100.00,NE,36,15.0,25.0,26,-99.99,,,-99.99,,2013-01-16 00:32:00,
2013-01-15 16:42:00,45.0,12.0,-100.00,North,9,14.0,23.0,26,-99.99,,,-99.99,,2013-01-16 00:42:00,
2013-01-15 16:52:00,45.0,12.0,-100.00,NNE,18,12.0,19.0,26,-99.99,,,-99.99,,2013-01-16 00:52:00,
2013-01-15 17:02:00,46.0,13.0,-100.00,NNE,32,12.0,21.0,26,-99.99,,,-99.99,,2013-01-16 01:02:00,
2013-01-15 17:12:00,45.0,12.0,-100.00,NE,43,13.0,22.0,26,-99.99,,,-99.99,,2013-01-16 01:12:00,
2013-01-15 17:22:00,44.0,11.0,-100.00,NE,51,14.0,23.0,26,-99.99,,,-99.99,,2013-01-16 01:22:00,
2013-01-15 17:32:00,43.0,10.0,-100.00,ENE,61,14.0,23.0,26,-99.99,,,-99.99,,2013-01-16 01:32:00,
2013-01-15 17:42:00,43.0,10.0,-100.00,ENE,57,12.0,22.0,26,-99.99,,,-99.99,,2013-01-16 01:42:00,
2013-01-15 17:52:00,43.0,11.0,-100.00,ENE,68,13.0,24.0,27,-99.99,,,-99.99,,2013-01-16 01:52:00,
2013-01-15 18:02:00,44.0,11.0,-100.00,ENE,61,12.0,22.0,26,-99.99,,,-99.99,,2013-01-16 02:02:00,
2013-01-15 18:12:00,44.0,11.0,-100.00,NE,54,12.0,22.0,26,-99.99,,,-99.99,,2013-01-16 02:12:00,
2013-01-15 18:22:00,43.0,10.0,-100.00,NE,51,10.0,19.0,26,-99.99,,,-99.99,,2013-01-16 02:22:00,
2013-01-15 18:32:00,42.0,10.0,-100.00,ENE,71,15.0,29.0,27,-99.99,,,-99.99,,2013-01-16 02:32:00,
2013-01-15 18:42:00,44.0,12.0,-100.00,ENE,78,14.0,24.0,27,-99.99,,,-99.99,,2013-01-16 02:42:00,
2013-01-15 18:52:00,45.0,12.0,-100.00,East,85,15.0,24.0,26,-99.99,,,-99.99,,2013-01-16 02:52:00,
2013-01-15 19:02:00,46.0,13.0,-100.00,ENE,69,10.0,24.0,26,-99.99,,,-99.99,,2013-01-16 03:02:00,
2013-01-15 19:11:00,45.0,12.0,-100.00,ENE,74,12.0,23.0,26,-99.99,,,-99.99,,2013-01-16 03:11:00,
2013-01-15 19:22:00,45.0,12.0,-100.00,East,86,10.0,18.0,26,-99.99,,,-99.99,,2013-01-16 03:22:00,
2013-01-15 19:32:00,45.0,13.0,-100.00,East,93,6.0,14.0,27,-99.99,,,-99.99,,2013-01-16 03:32:00,
2013-01-15 19:42:00,45.0,13.0,-100.00,East,96,5.0,15.0,27,-99.99,,,-99.99,,2013-01-16 03:42:00,
2013-01-15 19:52:00,45.0,13.0,-100.00,East,84,16.0,27.0,27,-99.99,,,-99.99,,2013-01-16 03:52:00,
2013-01-15 20:02:00,45.0,13.0,-100.00,East,84,16.0,27.0,27,-99.99,,,-99.99,,2013-01-16 04:02:00,
2013-01-15 20:12:00,45.0,12.0,-100.00,East,83,13.0,21.0,26,-99.99,,,-99.99,,2013-01-16 04:12:00,
2013-01-15 20:22:00,46.0,13.0,-100.00,East,93,9.0,22.0,26,-99.99,,,-99.99,,2013-01-16 04:22:00,
2013-01-15 20:32:00,46.0,13.0,-100.00,East,93,12.0,23.0,26,-99.99,,,-99.99,,2013-01-16 04:32:00,
2013-01-15 20:42:00,47.0,13.0,-100.00,East,87,8.0,20.0,25,-99.99,,,-99.99,,2013-01-16 04:42:00,
2013-01-15 20:52:00,46.0,13.0,-100.00,ESE,104,12.0,27.0,26,-99.99,,,-99.99,,2013-01-16 04:52:00,
2013-01-15 21:03:00,46.0,13.0,-100.00,East,93,17.0,29.0,26,-99.99,,,-99.99,,2013-01-16 05:03:00,
2013-01-15 21:12:00,45.0,12.0,-100.00,East,84,18.0,29.0,26,-99.99,,,-99.99,,2013-01-16 05:12:00,
2013-01-15 21:22:00,45.0,12.0,-100.00,East,83,18.0,26.0,26,-99.99,,,-99.99,,2013-01-16 05:22:00,
2013-01-15 21:32:00,46.0,13.0,-100.00,East,83,16.0,30.0,26,-99.99,,,-99.99,,2013-01-16 05:32:00,
2013-01-15 21:42:00,45.0,12.0,-100.00,East,82,15.0,26.0,26,-99.99,,,-99.99,,2013-01-16 05:42:00,
2013-01-15 21:52:00,45.0,12.0,-100.00,East,83,16.0,27.0,26,-99.99,,,-99.99,,2013-01-16 05:52:00,
2013-01-15 22:02:00,45.0,12.0,-100.00,East,79,17.0,31.0,26,-99.99,,,-99.99,,2013-01-16 06:02:00,
2013-01-15 22:11:00,44.0,12.0,-100.00,East,80,18.0,29.0,27,-99.99,,,-99.99,,2013-01-16 06:11:00,
2013-01-15 22:22:00,44.0,11.0,-100.00,East,79,17.0,32.0,26,-99.99,,,-99.99,,2013-01-16 06:22:00,
2013-01-15 22:32:00,45.0,12.0,-100.00,ENE,75,15.0,28.0,26,-99.99,,,-99.99,,2013-01-16 06:32:00,
2013-01-15 22:42:00,45.0,13.0,-100.00,ENE,68,9.0,13.0,27,-99.99,,,-99.99,,2013-01-16 06:42:00,
2013-01-15 22:52:00,45.0,13.0,-100.00,ENE,63,8.0,14.0,27,-99.99,,,-99.99,,2013-01-16 06:52:00,
2013-01-15 23:02:00,43.0,12.0,-100.00,NE,51,7.0,17.0,28,-99.99,,,-99.99,,2013-01-16 07:02:00,
2013-01-15 23:11:00,43.0,12.0,-100.00,ENE,78,14.0,25.0,28,-99.99,,,-99.99,,2013-01-16 07:11:00,
2013-01-15 23:22:00,44.0,12.0,-100.00,ENE,76,17.0,28.0,27,-99.99,,,-99.99,,2013-01-16 07:22:00,
2013-01-15 23:32:00,44.0,12.0,-100.00,ENE,70,15.0,27.0,27,-99.99,,,-99.99,,2013-01-16 07:32:00,
2013-01-15 23:42:00,44.0,12.0,-100.00,ENE,73,17.0,29.0,27,-99.99,,,-99.99,,2013-01-16 07:42:00,
2013-01-15 23:52:00,44.0,13.0,-100.00,NE,48,16.0,32.0,28,-99.99,,,-99.99,,2013-01-16 07:52:00,